Meteorología y climatología de Navarra
Datos de la estación - Meteo Navarra

Estación de Estella GN

Altitud 486 m.


Datos desde el 12/09/2019 hasta el 13/09/2019 en horario solar
Los datos son PROVISIONALES

Anterior Página 1 de 1 Siguiente Descargar: Formato para Excel 2000 o superior   Formato csv   Formato para OpenOffice Calc
Fecha Temperatura Humedad relativa Radiación global Insolación Precipitación Vel. viento 10 m Vel. viento 10 m Dir. viento 10 m
ºC % W/m² s l/m² m/s km/h º
12/09/2019 0:00 13.3 74 0.0 0 0.0 1.0 3.7 19
12/09/2019 0:10 13.3 74 0.0 0 0.0 0.8 3.0 348
12/09/2019 0:20 13.3 74 0.0 0 0.0 0.8 3.0 30
12/09/2019 0:30 13.4 73 0.0 0 0.0 1.3 4.7 11
12/09/2019 0:40 13.4 73 0.0 0 0.0 0.8 2.8 5
12/09/2019 0:50 13.4 73 0.0 0 0.0 1.1 3.8 31
12/09/2019 1:00 13.2 72 0.0 0 0.0 0.5 1.7 32
12/09/2019 1:10 13.0 74 0.0 0 0.0 0.6 2.2 353
12/09/2019 1:20 13.2 74 0.0 0 0.0 0.9 3.2 357
12/09/2019 1:30 13.2 74 0.0 0 0.0 1.0 3.5 10
12/09/2019 1:40 13.2 74 0.0 0 0.0 1.0 3.4 9
12/09/2019 1:50 13.1 75 0.0 0 0.0 0.7 2.3 340
12/09/2019 2:00 12.8 75 0.0 0 0.0 0.5 1.7 14
12/09/2019 2:10 12.5 76 0.0 0 0.0 0.8 3.0 16
12/09/2019 2:20 12.8 75 0.0 0 0.0 0.9 3.3 358
12/09/2019 2:30 12.9 75 0.0 0 0.0 1.1 3.8 18
12/09/2019 2:40 12.8 75 0.0 0 0.0 0.7 2.4 335
12/09/2019 2:50 12.6 76 0.0 0 0.0 0.7 2.6 347
12/09/2019 3:00 12.9 75 0.0 0 0.0 0.9 3.3 0
12/09/2019 3:10 13.0 74 0.0 0 0.0 1.1 3.9 356
12/09/2019 3:20 13.0 74 0.0 0 0.0 1.1 3.8 335
12/09/2019 3:30 12.7 75 0.0 0 0.0 0.7 2.5 325
12/09/2019 3:40 12.6 75 0.0 0 0.0 0.7 2.7 251
12/09/2019 3:50 12.4 76 0.0 0 0.0 0.6 2.2 289
12/09/2019 4:00 12.6 76 0.0 0 0.0 1.0 3.5 300
12/09/2019 4:10 12.8 75 0.0 0 0.0 0.5 1.9 243
12/09/2019 4:20 12.4 77 0.0 0 0.0 1.1 3.9 290
12/09/2019 4:30 12.3 77 0.0 0 0.0 1.1 4.0 318
12/09/2019 4:40 12.0 78 0.0 0 0.0 0.6 2.1 340
12/09/2019 4:50 11.8 79 0.0 0 0.0 0.6 2.1 347
12/09/2019 5:00 11.7 80 0.0 0 0.0 0.4 1.5 334
12/09/2019 5:10 11.4 81 0.0 0 0.0 0.3 1.0 31
12/09/2019 5:20 11.8 80 0.0 0 0.0 0.9 3.4 9
12/09/2019 5:30 12.0 80 0.0 0 0.0 1.1 3.8 327
12/09/2019 5:40 11.9 80 0.0 0 0.0 1.1 4.0 321
12/09/2019 5:50 11.9 79 0.0 0 0.0 1.0 3.7 299
12/09/2019 6:00 11.9 80 0.0 0 0.0 1.0 3.5 299
12/09/2019 6:10 12.1 78 7.3 0 0.0 1.3 4.7 321
12/09/2019 6:20 12.2 78 18.5 0 0.0 1.0 3.5 307
12/09/2019 6:30 12.4 79 24.6 0 0.0 1.3 4.7 303
12/09/2019 6:40 12.4 78 29.6 0 0.0 1.1 4.0 302
12/09/2019 6:50 12.5 78 32.2 0 0.0 0.8 2.9 321
12/09/2019 7:00 13.2 76 48.4 22 0.0 1.1 3.8 319
12/09/2019 7:10 14.1 72 188.2 600 0.0 1.3 4.6 302
12/09/2019 7:20 15.0 68 221.8 600 0.0 1.7 6.0 294
12/09/2019 7:30 15.0 67 254.9 600 0.0 1.7 5.9 295
12/09/2019 7:40 15.6 66 288.0 600 0.0 1.8 6.3 296
12/09/2019 7:50 16.0 65 320.3 600 0.0 1.2 4.2 303
12/09/2019 8:00 16.6 63 352.6 600 0.0 1.9 6.7 284
12/09/2019 8:10 17.0 62 199.9 238 0.0 1.2 4.3 279
12/09/2019 8:20 17.2 61 325.5 426 0.0 1.7 6.0 272
12/09/2019 8:30 17.6 59 446.5 600 0.0 2.0 7.2 263
12/09/2019 8:40 17.9 58 475.5 600 0.0 1.7 6.2 247
12/09/2019 8:50 18.3 57 503.6 600 0.0 1.4 4.9 275
12/09/2019 9:00 18.8 55 532.6 600 0.0 1.5 5.3 260
12/09/2019 9:10 19.2 53 560.6 600 0.0 1.6 5.9 248
12/09/2019 9:20 19.4 52 585.2 600 0.0 1.1 4.1 248
12/09/2019 9:30 19.8 51 603.0 600 0.0 1.2 4.4 290
12/09/2019 9:40 20.2 49 630.6 600 0.0 0.8 2.8 231
12/09/2019 9:50 20.8 47 653.1 600 0.0 0.9 3.2 303
12/09/2019 10:00 20.8 47 673.6 600 0.0 1.3 4.7 240
12/09/2019 10:10 21.1 46 693.8 600 0.0 1.2 4.2 251
12/09/2019 10:20 21.5 45 712.2 600 0.0 1.2 4.3 276
12/09/2019 10:30 21.7 45 728.3 600 0.0 1.0 3.6 260
12/09/2019 10:40 22.4 43 744.7 600 0.0 1.9 6.7 244
12/09/2019 10:50 22.5 43 758.6 600 0.0 2.0 7.2 233
12/09/2019 11:00 22.8 42 771.5 600 0.0 1.3 4.6 211
12/09/2019 11:10 23.4 40 781.8 600 0.0 1.5 5.3 249
12/09/2019 11:20 23.5 39 791.7 600 0.0 1.7 5.9 202
12/09/2019 11:30 24.0 38 798.8 600 0.0 1.4 5.2 196
12/09/2019 11:40 24.3 37 807.0 600 0.0 1.5 5.4 174
12/09/2019 11:50 24.7 37 812.0 600 0.0 1.6 5.9 187
12/09/2019 12:00 25.1 36 815.0 600 0.0 1.3 4.8 235
12/09/2019 12:10 25.6 35 818.0 600 0.0 1.3 4.6 231
12/09/2019 12:20 26.0 34 814.0 600 0.0 1.7 6.2 231
12/09/2019 12:30 26.0 34 811.0 600 0.0 1.6 5.6 223
12/09/2019 12:40 26.4 33 806.0 600 0.0 1.7 6.0 215
12/09/2019 12:50 26.5 33 798.9 600 0.0 1.4 4.9 225
12/09/2019 13:00 26.8 32 787.2 600 0.0 1.5 5.5 261
12/09/2019 13:10 27.1 32 777.2 600 0.0 1.6 5.8 252
12/09/2019 13:20 27.7 31 765.8 600 0.0 1.3 4.6 260
12/09/2019 13:30 27.9 30 754.8 600 0.0 2.2 7.8 219
12/09/2019 13:40 27.5 30 739.9 600 0.0 1.8 6.5 145
12/09/2019 13:50 27.9 30 725.0 600 0.0 1.5 5.3 228
12/09/2019 14:00 28.1 29 709.1 600 0.0 1.2 4.3 304
12/09/2019 14:10 28.4 29 691.3 600 0.0 1.1 4.0 248
12/09/2019 14:20 29.1 28 670.8 600 0.0 1.2 4.2 255
12/09/2019 14:30 28.7 28 648.0 600 0.0 2.2 7.9 204
12/09/2019 14:40 28.4 29 625.6 600 0.0 2.0 7.1 218
12/09/2019 14:50 28.7 28 603.2 600 0.0 2.1 7.5 225
12/09/2019 15:00 28.9 27 578.3 600 0.0 1.7 6.0 192
12/09/2019 15:10 28.6 28 552.0 600 0.0 1.4 4.9 173
12/09/2019 15:20 28.6 27 525.0 600 0.0 2.3 8.1 212
12/09/2019 15:30 28.8 27 496.3 600 0.0 2.3 8.3 226
12/09/2019 15:40 28.5 27 466.2 600 0.0 1.2 4.4 178
12/09/2019 15:50 28.6 27 436.2 600 0.0 2.2 7.8 211
12/09/2019 16:00 28.4 27 406.7 600 0.0 1.6 5.9 195
12/09/2019 16:10 28.7 26 373.2 600 0.0 1.7 6.0 210
12/09/2019 16:20 28.6 27 340.1 600 0.0 1.6 5.9 220
12/09/2019 16:30 28.4 33 306.8 600 0.0 1.3 4.6 251
12/09/2019 16:40 28.2 37 275.1 600 0.0 1.8 6.5 303
12/09/2019 16:50 27.8 39 242.6 600 0.0 1.7 5.9 315
12/09/2019 17:00 27.6 40 209.4 600 0.0 1.5 5.4 316
12/09/2019 17:10 27.2 41 177.2 600 0.0 1.4 5.1 298
12/09/2019 17:20 26.8 42 146.2 600 0.0 1.5 5.3 325
12/09/2019 17:30 26.4 43 115.7 600 0.0 0.9 3.2 341
12/09/2019 17:40 25.8 45 86.6 600 0.0 1.3 4.8 338
12/09/2019 17:50 25.1 47 59.7 592 0.0 1.2 4.5 336
12/09/2019 18:00 24.4 49 37.4 354 0.0 1.0 3.7 11
12/09/2019 18:10 23.6 50 5.2 10 0.0 1.6 5.8 14
12/09/2019 18:20 23.1 51 0.0 0 0.0 1.1 3.8 348
12/09/2019 18:30 22.4 54 0.0 0 0.0 0.7 2.3 346
12/09/2019 18:40 21.8 55 0.0 0 0.0 0.6 2.2 28
12/09/2019 18:50 21.1 58 0.0 0 0.0 0.6 2.2 331
12/09/2019 19:00 20.6 60 0.0 0 0.0 0.7 2.6 7
12/09/2019 19:10 20.3 61 0.0 0 0.0 0.9 3.2 3
12/09/2019 19:20 20.0 62 0.0 0 0.0 1.1 3.8 352
12/09/2019 19:30 19.6 63 0.0 0 0.0 0.4 1.4 359
12/09/2019 19:40 19.3 63 0.0 0 0.0 0.6 2.3 4
12/09/2019 19:50 19.3 63 0.0 0 0.0 0.7 2.6 354
12/09/2019 20:00 18.9 64 0.0 0 0.0 0.8 3.0 343
12/09/2019 20:10 18.9 64 0.0 0 0.0 0.9 3.1 3
12/09/2019 20:20 18.7 65 0.0 0 0.0 1.0 3.6 319
12/09/2019 20:30 18.5 66 0.0 0 0.0 1.2 4.5 359
12/09/2019 20:40 18.5 66 0.0 0 0.0 1.2 4.3 1
12/09/2019 20:50 18.2 67 0.0 0 0.0 1.2 4.2 11
12/09/2019 21:00 18.2 67 0.0 0 0.0 1.4 4.9 31
12/09/2019 21:10 18.0 67 0.0 0 0.0 1.2 4.2 348
12/09/2019 21:20 17.8 68 0.0 0 0.0 1.1 3.9 329
12/09/2019 21:30 17.7 68 0.0 0 0.0 1.1 4.0 328
12/09/2019 21:40 17.6 67 0.0 0 0.0 1.4 4.9 345
12/09/2019 21:50 17.5 67 0.0 0 0.0 2.0 7.3 2
12/09/2019 22:00 17.5 68 0.0 0 0.0 2.3 8.3 9
12/09/2019 22:10 17.6 67 0.0 0 0.0 1.9 6.8 10
12/09/2019 22:20 17.6 67 0.0 0 0.0 1.7 5.9 344
12/09/2019 22:30 17.3 67 0.0 0 0.0 1.6 5.8 340
12/09/2019 22:40 17.3 67 0.0 0 0.0 1.7 6.2 341
12/09/2019 22:50 17.3 67 0.0 0 0.0 1.3 4.8 337
12/09/2019 23:00 17.2 68 0.0 0 0.0 1.6 5.8 357
12/09/2019 23:10 17.1 69 0.0 0 0.0 1.7 6.1 336
12/09/2019 23:20 17.0 69 0.0 0 0.0 1.7 6.3 328
12/09/2019 23:30 16.9 70 0.0 0 0.0 1.4 5.1 320
12/09/2019 23:40 16.6 72 0.0 0 0.0 1.4 4.9 341
12/09/2019 23:50 16.4 73 0.0 0 0.0 1.3 4.6 313
Anterior Página 1 de 1 Siguiente

NOTA: Tipo de datos según el color:
   - Valores diarios o 10 minutos correctos
   - Valores diarios calculados a partir de un número de datos 10 minutos menor que 144 y mayor que 120, o de un número de datos semihorarios menor que 48 y mayor que 40 (caso de las estaciones de Riegos de Navarra y del MARM)
   - Valores diez minutos estimados


Contacto        Enlaces        Aviso legal